sensor_id;sensor_type;location;lat;lon;timestamp;temperature;humidity
71396;DHT22;59888;55.814;37.132;2023-06-22T00:02:18;15.38;40.59
71396;DHT22;59888;55.814;37.132;2023-06-22T00:04:44;15.34;40.46
71396;DHT22;59888;55.814;37.132;2023-06-22T00:07:11;15.34;40.38
71396;DHT22;59888;55.814;37.132;2023-06-22T00:09:37;15.32;40.16
71396;DHT22;59888;55.814;37.132;2023-06-22T00:12:03;15.29;40.04
71396;DHT22;59888;55.814;37.132;2023-06-22T00:14:29;15.24;40.73
71396;DHT22;59888;55.814;37.132;2023-06-22T00:16:55;15.21;40.46
71396;DHT22;59888;55.814;37.132;2023-06-22T00:19:23;15.15;40.39
71396;DHT22;59888;55.814;37.132;2023-06-22T00:21:50;15.12;40.42
71396;DHT22;59888;55.814;37.132;2023-06-22T00:24:19;15.10;40.46
71396;DHT22;59888;55.814;37.132;2023-06-22T00:26:45;15.08;40.60
71396;DHT22;59888;55.814;37.132;2023-06-22T00:29:12;15.06;40.75
71396;DHT22;59888;55.814;37.132;2023-06-22T00:31:38;15.13;40.93
71396;DHT22;59888;55.814;37.132;2023-06-22T00:34:04;15.09;41.04
71396;DHT22;59888;55.814;37.132;2023-06-22T00:36:33;15.04;41.30
71396;DHT22;59888;55.814;37.132;2023-06-22T00:39:05;15.03;42.27
71396;DHT22;59888;55.814;37.132;2023-06-22T00:41:33;15.01;41.39
71396;DHT22;59888;55.814;37.132;2023-06-22T00:43:59;14.98;41.71
71396;DHT22;59888;55.814;37.132;2023-06-22T00:46:25;14.98;41.84
71396;DHT22;59888;55.814;37.132;2023-06-22T00:48:52;14.98;42.19
71396;DHT22;59888;55.814;37.132;2023-06-22T00:51:19;15.00;42.08
71396;DHT22;59888;55.814;37.132;2023-06-22T00:53:51;15.03;42.33
71396;DHT22;59888;55.814;37.132;2023-06-22T00:56:18;15.09;42.18
71396;DHT22;59888;55.814;37.132;2023-06-22T00:58:46;15.12;42.39
71396;DHT22;59888;55.814;37.132;2023-06-22T01:01:13;15.08;42.52
71396;DHT22;59888;55.814;37.132;2023-06-22T01:03:39;15.06;42.45
71396;DHT22;59888;55.814;37.132;2023-06-22T01:06:15;15.00;44.06
71396;DHT22;59888;55.814;37.132;2023-06-22T01:08:48;15.02;43.39
71396;DHT22;59888;55.814;37.132;2023-06-22T01:11:36;15.07;44.09
71396;DHT22;59888;55.814;37.132;2023-06-22T01:14:19;15.01;43.81
71396;DHT22;59888;55.814;37.132;2023-06-22T01:16:48;15.01;42.74
71396;DHT22;59888;55.814;37.132;2023-06-22T01:19:45;14.98;44.42
71396;DHT22;59888;55.814;37.132;2023-06-22T01:22:20;15.03;42.96
71396;DHT22;59888;55.814;37.132;2023-06-22T01:27:47;15.10;42.49
71396;DHT22;59888;55.814;37.132;2023-06-22T01:30:19;15.13;42.51
71396;DHT22;59888;55.814;37.132;2023-06-22T01:32:46;15.21;42.39
71396;DHT22;59888;55.814;37.132;2023-06-22T01:35:14;15.22;42.52
71396;DHT22;59888;55.814;37.132;2023-06-22T01:37:40;15.24;42.51
71396;DHT22;59888;55.814;37.132;2023-06-22T01:40:08;15.26;42.55
71396;DHT22;59888;55.814;37.132;2023-06-22T01:42:35;15.27;42.76
71396;DHT22;59888;55.814;37.132;2023-06-22T01:45:02;15.32;42.72
71396;DHT22;59888;55.814;37.132;2023-06-22T01:47:31;15.39;42.55
71396;DHT22;59888;55.814;37.132;2023-06-22T01:49:58;15.39;42.68
71396;DHT22;59888;55.814;37.132;2023-06-22T01:52:24;15.38;43.18
71396;DHT22;59888;55.814;37.132;2023-06-22T01:54:50;15.45;42.97
71396;DHT22;59888;55.814;37.132;2023-06-22T01:57:18;15.51;42.96
71396;DHT22;59888;55.814;37.132;2023-06-22T02:00:07;15.56;44.42
71396;DHT22;59888;55.814;37.132;2023-06-22T02:05:16;15.76;43.18
71396;DHT22;59888;55.814;37.132;2023-06-22T02:07:55;15.84;43.88
71396;DHT22;59888;55.814;37.132;2023-06-22T02:10:24;15.87;42.90
71396;DHT22;59888;55.814;37.132;2023-06-22T02:12:51;15.95;42.70
71396;DHT22;59888;55.814;37.132;2023-06-22T02:15:17;16.06;42.77
71396;DHT22;59888;55.814;37.132;2023-06-22T02:17:51;16.19;43.07
71396;DHT22;59888;55.814;37.132;2023-06-22T02:20:42;16.31;42.84
71396;DHT22;59888;55.814;37.132;2023-06-22T02:23:09;16.41;41.91
71396;DHT22;59888;55.814;37.132;2023-06-22T02:25:35;16.45;41.45
71396;DHT22;59888;55.814;37.132;2023-06-22T02:28:02;16.55;41.20
71396;DHT22;59888;55.814;37.132;2023-06-22T02:30:28;16.59;40.86
71396;DHT22;59888;55.814;37.132;2023-06-22T02:32:54;16.56;40.74
71396;DHT22;59888;55.814;37.132;2023-06-22T02:35:29;16.56;40.44
71396;DHT22;59888;55.814;37.132;2023-06-22T02:38:02;16.62;40.23
71396;DHT22;59888;55.814;37.132;2023-06-22T02:40:29;16.61;40.31
71396;DHT22;59888;55.814;37.132;2023-06-22T02:42:56;16.61;40.20
71396;DHT22;59888;55.814;37.132;2023-06-22T02:45:24;16.64;39.97
71396;DHT22;59888;55.814;37.132;2023-06-22T02:47:50;16.73;39.99
71396;DHT22;59888;55.814;37.132;2023-06-22T02:50:17;16.89;39.59
71396;DHT22;59888;55.814;37.132;2023-06-22T02:52:44;17.01;39.38
71396;DHT22;59888;55.814;37.132;2023-06-22T02:55:10;16.99;39.31
71396;DHT22;59888;55.814;37.132;2023-06-22T02:57:37;17.04;39.20
71396;DHT22;59888;55.814;37.132;2023-06-22T03:00:10;17.14;39.00
71396;DHT22;59888;55.814;37.132;2023-06-22T03:02:46;17.17;38.98
71396;DHT22;59888;55.814;37.132;2023-06-22T03:05:14;17.23;38.94
71396;DHT22;59888;55.814;37.132;2023-06-22T03:07:41;17.29;38.73
71396;DHT22;59888;55.814;37.132;2023-06-22T03:10:09;17.41;38.55
71396;DHT22;59888;55.814;37.132;2023-06-22T03:12:37;17.41;38.53
71396;DHT22;59888;55.814;37.132;2023-06-22T03:15:08;17.41;39.18
71396;DHT22;59888;55.814;37.132;2023-06-22T03:17:35;17.40;38.80
71396;DHT22;59888;55.814;37.132;2023-06-22T03:20:03;17.31;38.53
71396;DHT22;59888;55.814;37.132;2023-06-22T03:22:41;17.28;38.08
71396;DHT22;59888;55.814;37.132;2023-06-22T03:25:08;17.26;38.65
71396;DHT22;59888;55.814;37.132;2023-06-22T03:27:46;17.37;38.95
71396;DHT22;59888;55.814;37.132;2023-06-22T03:30:14;17.50;38.21
71396;DHT22;59888;55.814;37.132;2023-06-22T03:32:40;17.52;38.14
71396;DHT22;59888;55.814;37.132;2023-06-22T03:35:06;17.66;38.25
71396;DHT22;59888;55.814;37.132;2023-06-22T03:37:35;17.78;37.54
71396;DHT22;59888;55.814;37.132;2023-06-22T03:40:01;17.84;37.74
71396;DHT22;59888;55.814;37.132;2023-06-22T03:42:30;17.91;37.61
71396;DHT22;59888;55.814;37.132;2023-06-22T03:44:56;17.92;40.29
71396;DHT22;59888;55.814;37.132;2023-06-22T03:47:22;17.89;37.62
71396;DHT22;59888;55.814;37.132;2023-06-22T03:49:49;17.95;37.62
71396;DHT22;59888;55.814;37.132;2023-06-22T03:52:15;17.99;38.23
71396;DHT22;59888;55.814;37.132;2023-06-22T03:54:41;18.04;37.92
71396;DHT22;59888;55.814;37.132;2023-06-22T03:57:07;18.09;38.08
71396;DHT22;59888;55.814;37.132;2023-06-22T03:59:43;18.23;40.39
71396;DHT22;59888;55.814;37.132;2023-06-22T04:02:09;18.32;37.24
71396;DHT22;59888;55.814;37.132;2023-06-22T04:04:35;18.28;39.30
71396;DHT22;59888;55.814;37.132;2023-06-22T04:07:01;18.33;38.06
71396;DHT22;59888;55.814;37.132;2023-06-22T04:09:38;18.40;38.35
71396;DHT22;59888;55.814;37.132;2023-06-22T04:12:05;18.46;36.88
71396;DHT22;59888;55.814;37.132;2023-06-22T04:14:32;18.51;37.84
71396;DHT22;59888;55.814;37.132;2023-06-22T04:16:58;18.65;37.46
71396;DHT22;59888;55.814;37.132;2023-06-22T04:19:35;18.79;37.61
71396;DHT22;59888;55.814;37.132;2023-06-22T04:22:02;18.86;37.19
71396;DHT22;59888;55.814;37.132;2023-06-22T04:24:28;19.05;37.42
71396;DHT22;59888;55.814;37.132;2023-06-22T04:26:54;19.26;37.69
71396;DHT22;59888;55.814;37.132;2023-06-22T04:29:21;19.35;35.73
71396;DHT22;59888;55.814;37.132;2023-06-22T04:31:54;19.35;37.10
71396;DHT22;59888;55.814;37.132;2023-06-22T04:34:22;19.46;36.29
71396;DHT22;59888;55.814;37.132;2023-06-22T04:36:49;19.39;36.51
71396;DHT22;59888;55.814;37.132;2023-06-22T04:39:25;19.47;37.50
71396;DHT22;59888;55.814;37.132;2023-06-22T04:41:52;19.63;37.01
71396;DHT22;59888;55.814;37.132;2023-06-22T04:44:18;19.84;36.22
71396;DHT22;59888;55.814;37.132;2023-06-22T04:46:51;19.97;36.43
71396;DHT22;59888;55.814;37.132;2023-06-22T04:49:20;20.12;36.16
71396;DHT22;59888;55.814;37.132;2023-06-22T04:51:46;20.05;37.30
71396;DHT22;59888;55.814;37.132;2023-06-22T04:54:12;20.11;35.72
71396;DHT22;59888;55.814;37.132;2023-06-22T04:56:39;20.15;36.40
71396;DHT22;59888;55.814;37.132;2023-06-22T04:59:06;20.32;36.25
71396;DHT22;59888;55.814;37.132;2023-06-22T05:01:34;20.45;36.92
71396;DHT22;59888;55.814;37.132;2023-06-22T05:04:00;20.58;36.51
71396;DHT22;59888;55.814;37.132;2023-06-22T05:06:27;20.81;35.98
71396;DHT22;59888;55.814;37.132;2023-06-22T05:08:54;20.96;35.74
71396;DHT22;59888;55.814;37.132;2023-06-22T05:11:25;21.06;35.67
71396;DHT22;59888;55.814;37.132;2023-06-22T05:13:52;21.14;35.15
71396;DHT22;59888;55.814;37.132;2023-06-22T05:16:18;21.27;34.66
71396;DHT22;59888;55.814;37.132;2023-06-22T05:18:55;21.28;35.03
71396;DHT22;59888;55.814;37.132;2023-06-22T05:21:23;21.29;35.38
71396;DHT22;59888;55.814;37.132;2023-06-22T05:23:50;21.34;35.14
71396;DHT22;59888;55.814;37.132;2023-06-22T05:26:17;21.44;34.53
71396;DHT22;59888;55.814;37.132;2023-06-22T05:28:44;21.53;33.47
71396;DHT22;59888;55.814;37.132;2023-06-22T05:31:17;21.48;33.65
71396;DHT22;59888;55.814;37.132;2023-06-22T05:33:46;21.43;35.31
71396;DHT22;59888;55.814;37.132;2023-06-22T05:36:13;21.44;34.82
71396;DHT22;59888;55.814;37.132;2023-06-22T05:38:49;21.72;34.79
71396;DHT22;59888;55.814;37.132;2023-06-22T05:41:18;21.88;34.20
71396;DHT22;59888;55.814;37.132;2023-06-22T05:43:50;22.07;33.70
71396;DHT22;59888;55.814;37.132;2023-06-22T05:46:19;22.18;33.50
71396;DHT22;59888;55.814;37.132;2023-06-22T05:48:45;22.28;32.78
71396;DHT22;59888;55.814;37.132;2023-06-22T05:51:11;22.32;32.84
71396;DHT22;59888;55.814;37.132;2023-06-22T05:53:39;22.46;32.83
71396;DHT22;59888;55.814;37.132;2023-06-22T05:56:06;22.61;31.96
71396;DHT22;59888;55.814;37.132;2023-06-22T05:58:42;22.76;32.14
71396;DHT22;59888;55.814;37.132;2023-06-22T06:01:08;22.94;32.02
71396;DHT22;59888;55.814;37.132;2023-06-22T06:03:34;23.12;31.65
71396;DHT22;59888;55.814;37.132;2023-06-22T06:06:07;23.14;31.79
71396;DHT22;59888;55.814;37.132;2023-06-22T06:08:39;23.35;31.74
71396;DHT22;59888;55.814;37.132;2023-06-22T06:11:05;23.47;31.51
71396;DHT22;59888;55.814;37.132;2023-06-22T06:13:31;23.44;31.13
71396;DHT22;59888;55.814;37.132;2023-06-22T06:15:57;23.45;31.85
71396;DHT22;59888;55.814;37.132;2023-06-22T06:18:29;23.62;31.28
71396;DHT22;59888;55.814;37.132;2023-06-22T06:20:55;23.75;30.99
71396;DHT22;59888;55.814;37.132;2023-06-22T06:23:21;23.92;30.83
71396;DHT22;59888;55.814;37.132;2023-06-22T06:25:47;24.03;30.56
71396;DHT22;59888;55.814;37.132;2023-06-22T06:28:18;24.28;30.42
71396;DHT22;59888;55.814;37.132;2023-06-22T06:30:44;24.40;30.24
71396;DHT22;59888;55.814;37.132;2023-06-22T06:33:13;24.51;30.11
71396;DHT22;59888;55.814;37.132;2023-06-22T06:35:39;24.77;29.74
71396;DHT22;59888;55.814;37.132;2023-06-22T06:38:04;25.18;29.31
71396;DHT22;59888;55.814;37.132;2023-06-22T06:40:31;25.37;28.58
71396;DHT22;59888;55.814;37.132;2023-06-22T06:42:57;25.43;28.69
71396;DHT22;59888;55.814;37.132;2023-06-22T06:45:24;25.45;28.19
71396;DHT22;59888;55.814;37.132;2023-06-22T06:47:51;25.47;28.15
71396;DHT22;59888;55.814;37.132;2023-06-22T06:50:20;25.52;28.48
71396;DHT22;59888;55.814;37.132;2023-06-22T06:52:52;25.49;28.01
71396;DHT22;59888;55.814;37.132;2023-06-22T06:55:20;25.47;28.54
71396;DHT22;59888;55.814;37.132;2023-06-22T06:57:49;25.37;27.55
71396;DHT22;59888;55.814;37.132;2023-06-22T07:00:16;25.39;28.08
71396;DHT22;59888;55.814;37.132;2023-06-22T07:02:43;25.52;28.10
71396;DHT22;59888;55.814;37.132;2023-06-22T07:05:11;25.67;28.10
71396;DHT22;59888;55.814;37.132;2023-06-22T07:07:37;25.82;27.91
71396;DHT22;59888;55.814;37.132;2023-06-22T07:10:08;25.90;27.85
71396;DHT22;59888;55.814;37.132;2023-06-22T07:12:37;26.03;27.84
71396;DHT22;59888;55.814;37.132;2023-06-22T07:15:05;26.20;27.62
71396;DHT22;59888;55.814;37.132;2023-06-22T07:17:34;26.34;27.52
71396;DHT22;59888;55.814;37.132;2023-06-22T07:20:01;26.37;27.08
71396;DHT22;59888;55.814;37.132;2023-06-22T07:22:29;26.47;27.15
71396;DHT22;59888;55.814;37.132;2023-06-22T07:24:54;26.58;27.11
71396;DHT22;59888;55.814;37.132;2023-06-22T07:27:22;26.77;26.92
71396;DHT22;59888;55.814;37.132;2023-06-22T07:29:48;26.96;26.83
71396;DHT22;59888;55.814;37.132;2023-06-22T07:32:14;27.01;26.53
71396;DHT22;59888;55.814;37.132;2023-06-22T07:34:40;26.82;26.55
71396;DHT22;59888;55.814;37.132;2023-06-22T07:37:07;26.83;26.56
71396;DHT22;59888;55.814;37.132;2023-06-22T07:39:39;26.71;26.65
71396;DHT22;59888;55.814;37.132;2023-06-22T07:42:08;26.66;26.46
71396;DHT22;59888;55.814;37.132;2023-06-22T07:44:34;26.65;26.75
71396;DHT22;59888;55.814;37.132;2023-06-22T07:47:00;26.69;26.83
71396;DHT22;59888;55.814;37.132;2023-06-22T07:49:27;26.69;26.35
71396;DHT22;59888;55.814;37.132;2023-06-22T07:51:54;26.51;26.66
71396;DHT22;59888;55.814;37.132;2023-06-22T07:54:20;26.60;26.65
71396;DHT22;59888;55.814;37.132;2023-06-22T07:56:46;26.71;26.62
71396;DHT22;59888;55.814;37.132;2023-06-22T07:59:12;26.86;26.52
71396;DHT22;59888;55.814;37.132;2023-06-22T08:01:38;26.71;26.49
71396;DHT22;59888;55.814;37.132;2023-06-22T08:04:04;26.58;26.65
71396;DHT22;59888;55.814;37.132;2023-06-22T08:06:31;26.63;26.65
71396;DHT22;59888;55.814;37.132;2023-06-22T08:08:57;26.73;26.16
71396;DHT22;59888;55.814;37.132;2023-06-22T08:11:25;26.62;26.46
71396;DHT22;59888;55.814;37.132;2023-06-22T08:13:51;26.60;26.58
71396;DHT22;59888;55.814;37.132;2023-06-22T08:16:17;26.52;26.39
71396;DHT22;59888;55.814;37.132;2023-06-22T08:18:43;26.47;26.77
71396;DHT22;59888;55.814;37.132;2023-06-22T08:21:09;26.61;26.75
71396;DHT22;59888;55.814;37.132;2023-06-22T08:23:37;26.60;26.63
71396;DHT22;59888;55.814;37.132;2023-06-22T08:26:03;26.62;26.68
71396;DHT22;59888;55.814;37.132;2023-06-22T08:28:29;26.64;26.56
71396;DHT22;59888;55.814;37.132;2023-06-22T08:30:54;26.50;25.63
71396;DHT22;59888;55.814;37.132;2023-06-22T08:33:21;26.40;26.61
71396;DHT22;59888;55.814;37.132;2023-06-22T08:35:58;26.57;26.59
71396;DHT22;59888;55.814;37.132;2023-06-22T08:38:25;26.57;25.93
71396;DHT22;59888;55.814;37.132;2023-06-22T08:40:51;26.51;26.46
71396;DHT22;59888;55.814;37.132;2023-06-22T08:43:16;26.66;26.46
71396;DHT22;59888;55.814;37.132;2023-06-22T08:45:43;26.87;26.33
71396;DHT22;59888;55.814;37.132;2023-06-22T08:48:09;27.00;25.93
71396;DHT22;59888;55.814;37.132;2023-06-22T08:50:35;26.96;26.04
71396;DHT22;59888;55.814;37.132;2023-06-22T08:53:01;26.89;26.06
71396;DHT22;59888;55.814;37.132;2023-06-22T08:55:27;26.91;26.07
71396;DHT22;59888;55.814;37.132;2023-06-22T08:57:53;26.89;26.05
71396;DHT22;59888;55.814;37.132;2023-06-22T09:00:19;26.98;26.17
71396;DHT22;59888;55.814;37.132;2023-06-22T09:02:47;27.14;25.91
71396;DHT22;59888;55.814;37.132;2023-06-22T09:05:13;27.30;25.90
71396;DHT22;59888;55.814;37.132;2023-06-22T09:07:40;27.47;25.88
71396;DHT22;59888;55.814;37.132;2023-06-22T09:10:06;27.42;25.70
71396;DHT22;59888;55.814;37.132;2023-06-22T09:12:33;27.32;25.49
71396;DHT22;59888;55.814;37.132;2023-06-22T09:15:00;27.26;25.72
71396;DHT22;59888;55.814;37.132;2023-06-22T09:17:27;27.36;25.82
71396;DHT22;59888;55.814;37.132;2023-06-22T09:19:53;27.34;25.68
71396;DHT22;59888;55.814;37.132;2023-06-22T09:22:19;27.26;25.71
71396;DHT22;59888;55.814;37.132;2023-06-22T09:24:45;27.21;25.86
71396;DHT22;59888;55.814;37.132;2023-06-22T09:27:11;27.31;25.63
71396;DHT22;59888;55.814;37.132;2023-06-22T09:29:37;27.25;25.79
71396;DHT22;59888;55.814;37.132;2023-06-22T09:32:03;27.44;25.75
71396;DHT22;59888;55.814;37.132;2023-06-22T09:34:29;27.63;25.49
71396;DHT22;59888;55.814;37.132;2023-06-22T09:36:57;27.82;25.43
71396;DHT22;59888;55.814;37.132;2023-06-22T09:39:31;28.06;25.20
71396;DHT22;59888;55.814;37.132;2023-06-22T09:42:00;28.33;25.01
71396;DHT22;59888;55.814;37.132;2023-06-22T09:44:26;28.45;24.91
71396;DHT22;59888;55.814;37.132;2023-06-22T09:46:52;28.58;24.84
71396;DHT22;59888;55.814;37.132;2023-06-22T09:49:19;28.59;24.55
71396;DHT22;59888;55.814;37.132;2023-06-22T09:51:46;28.55;24.61
71396;DHT22;59888;55.814;37.132;2023-06-22T09:54:12;28.49;24.59
71396;DHT22;59888;55.814;37.132;2023-06-22T09:56:38;28.47;24.82
71396;DHT22;59888;55.814;37.132;2023-06-22T09:59:04;28.58;24.64
71396;DHT22;59888;55.814;37.132;2023-06-22T10:01:30;28.74;24.71
71396;DHT22;59888;55.814;37.132;2023-06-22T10:03:56;28.93;24.53
71396;DHT22;59888;55.814;37.132;2023-06-22T10:06:22;29.08;24.53
71396;DHT22;59888;55.814;37.132;2023-06-22T10:08:51;29.11;24.13
71396;DHT22;59888;55.814;37.132;2023-06-22T10:11:17;29.17;24.17
71396;DHT22;59888;55.814;37.132;2023-06-22T10:13:43;29.31;24.08
71396;DHT22;59888;55.814;37.132;2023-06-22T10:16:09;29.47;23.94
71396;DHT22;59888;55.814;37.132;2023-06-22T10:18:40;29.42;23.34
71396;DHT22;59888;55.814;37.132;2023-06-22T10:21:06;29.37;23.89
71396;DHT22;59888;55.814;37.132;2023-06-22T10:23:32;29.47;23.98
71396;DHT22;59888;55.814;37.132;2023-06-22T10:25:58;29.59;23.45
71396;DHT22;59888;55.814;37.132;2023-06-22T10:28:24;29.47;23.56
71396;DHT22;59888;55.814;37.132;2023-06-22T10:30:50;29.32;23.56
71396;DHT22;59888;55.814;37.132;2023-06-22T10:33:16;29.21;23.54
71396;DHT22;59888;55.814;37.132;2023-06-22T10:35:43;29.01;23.79
71396;DHT22;59888;55.814;37.132;2023-06-22T10:38:09;29.01;24.02
71396;DHT22;59888;55.814;37.132;2023-06-22T10:40:35;29.04;23.41
71396;DHT22;59888;55.814;37.132;2023-06-22T10:43:00;28.83;23.24
71396;DHT22;59888;55.814;37.132;2023-06-22T10:45:26;28.62;24.27
71396;DHT22;59888;55.814;37.132;2023-06-22T10:47:53;28.69;24.35
71396;DHT22;59888;55.814;37.132;2023-06-22T10:50:19;28.78;24.39
71396;DHT22;59888;55.814;37.132;2023-06-22T10:52:45;28.85;24.36
71396;DHT22;59888;55.814;37.132;2023-06-22T10:55:12;28.88;24.17
71396;DHT22;59888;55.814;37.132;2023-06-22T10:57:38;28.97;24.32
71396;DHT22;59888;55.814;37.132;2023-06-22T11:00:07;29.20;23.73
71396;DHT22;59888;55.814;37.132;2023-06-22T11:02:34;29.33;23.75
71396;DHT22;59888;55.814;37.132;2023-06-22T11:05:00;29.49;23.72
71396;DHT22;59888;55.814;37.132;2023-06-22T11:07:26;29.48;22.95
71396;DHT22;59888;55.814;37.132;2023-06-22T11:10:00;29.43;22.69
71396;DHT22;59888;55.814;37.132;2023-06-22T11:12:26;29.44;23.00
71396;DHT22;59888;55.814;37.132;2023-06-22T11:14:52;29.49;22.96
71396;DHT22;59888;55.814;37.132;2023-06-22T11:17:18;29.35;22.06
71396;DHT22;59888;55.814;37.132;2023-06-22T11:19:44;29.34;22.52
71396;DHT22;59888;55.814;37.132;2023-06-22T11:22:10;29.24;21.87
71396;DHT22;59888;55.814;37.132;2023-06-22T11:24:36;29.38;22.41
71396;DHT22;59888;55.814;37.132;2023-06-22T11:27:02;29.52;22.40
71396;DHT22;59888;55.814;37.132;2023-06-22T11:29:33;29.43;22.37
71396;DHT22;59888;55.814;37.132;2023-06-22T11:32:00;29.32;22.01
71396;DHT22;59888;55.814;37.132;2023-06-22T11:34:26;29.36;22.53
71396;DHT22;59888;55.814;37.132;2023-06-22T11:36:54;29.62;22.49
71396;DHT22;59888;55.814;37.132;2023-06-22T11:39:20;29.77;22.04
71396;DHT22;59888;55.814;37.132;2023-06-22T11:42:00;29.82;20.87
71396;DHT22;59888;55.814;37.132;2023-06-22T11:45:42;29.89;21.41
71396;DHT22;59888;55.814;37.132;2023-06-22T11:55:52;30.00;20.41
71396;DHT22;59888;55.814;37.132;2023-06-22T11:58:28;29.74;20.00
71396;DHT22;59888;55.814;37.132;2023-06-22T12:01:03;29.44;21.07
71396;DHT22;59888;55.814;37.132;2023-06-22T12:04:03;29.35;21.79
71396;DHT22;59888;55.814;37.132;2023-06-22T12:06:45;29.70;22.00
71396;DHT22;59888;55.814;37.132;2023-06-22T12:09:12;30.01;22.07
71396;DHT22;59888;55.814;37.132;2023-06-22T12:11:39;30.12;21.58
71396;DHT22;59888;55.814;37.132;2023-06-22T12:14:05;30.19;21.95
71396;DHT22;59888;55.814;37.132;2023-06-22T12:16:31;30.42;21.78
71396;DHT22;59888;55.814;37.132;2023-06-22T12:18:57;30.67;21.47
71396;DHT22;59888;55.814;37.132;2023-06-22T12:21:23;30.72;21.58
71396;DHT22;59888;55.814;37.132;2023-06-22T12:23:50;30.91;21.81
71396;DHT22;59888;55.814;37.132;2023-06-22T12:26:16;31.12;21.53
71396;DHT22;59888;55.814;37.132;2023-06-22T12:28:42;31.28;21.45
71396;DHT22;59888;55.814;37.132;2023-06-22T12:31:08;31.53;21.24
71396;DHT22;59888;55.814;37.132;2023-06-22T12:33:34;31.73;21.11
71396;DHT22;59888;55.814;37.132;2023-06-22T12:36:00;32.00;20.86
71396;DHT22;59888;55.814;37.132;2023-06-22T12:38:26;32.03;20.50
71396;DHT22;59888;55.814;37.132;2023-06-22T12:40:52;31.79;20.12
71396;DHT22;59888;55.814;37.132;2023-06-22T12:43:18;31.38;21.23
71396;DHT22;59888;55.814;37.132;2023-06-22T12:45:44;31.48;21.05
71396;DHT22;59888;55.814;37.132;2023-06-22T12:48:15;31.73;20.05
71396;DHT22;59888;55.814;37.132;2023-06-22T12:50:42;31.85;20.86
71396;DHT22;59888;55.814;37.132;2023-06-22T12:53:08;32.33;21.06
71396;DHT22;59888;55.814;37.132;2023-06-22T12:55:34;32.74;20.59
71396;DHT22;59888;55.814;37.132;2023-06-22T12:58:00;33.05;20.59
71396;DHT22;59888;55.814;37.132;2023-06-22T13:00:26;33.13;18.20
71396;DHT22;59888;55.814;37.132;2023-06-22T13:02:52;32.93;19.42
71396;DHT22;59888;55.814;37.132;2023-06-22T13:05:18;32.71;19.34
71396;DHT22;59888;55.814;37.132;2023-06-22T13:07:45;33.26;19.09
71396;DHT22;59888;55.814;37.132;2023-06-22T13:10:11;33.81;15.88
71396;DHT22;59888;55.814;37.132;2023-06-22T13:12:37;33.19;18.63
71396;DHT22;59888;55.814;37.132;2023-06-22T13:15:03;35.24;18.14
71396;DHT22;59888;55.814;37.132;2023-06-22T13:17:30;36.84;17.00
71396;DHT22;59888;55.814;37.132;2023-06-22T13:20:01;36.69;14.00
71396;DHT22;59888;55.814;37.132;2023-06-22T13:22:32;35.49;13.70
71396;DHT22;59888;55.814;37.132;2023-06-22T13:24:59;35.52;18.35
71396;DHT22;59888;55.814;37.132;2023-06-22T13:27:25;37.23;16.50
71396;DHT22;59888;55.814;37.132;2023-06-22T13:29:56;38.97;14.15
71396;DHT22;59888;55.814;37.132;2023-06-22T13:32:22;40.90;14.65
71396;DHT22;59888;55.814;37.132;2023-06-22T13:34:48;0.00;0.00
71396;DHT22;59888;55.814;37.132;2023-06-22T13:37:14;0.00;0.00
71396;DHT22;59888;55.814;37.132;2023-06-22T13:39:41;0.00;0.00
71396;DHT22;59888;55.814;37.132;2023-06-22T13:42:07;0.00;0.00
71396;DHT22;59888;55.814;37.132;2023-06-22T13:44:34;0.00;0.00
71396;DHT22;59888;55.814;37.132;2023-06-22T13:47:00;0.00;0.00
71396;DHT22;59888;55.814;37.132;2023-06-22T13:49:27;0.00;0.00
71396;DHT22;59888;55.814;37.132;2023-06-22T13:51:53;0.00;0.00
71396;DHT22;59888;55.814;37.132;2023-06-22T13:54:19;0.00;0.00
71396;DHT22;59888;55.814;37.132;2023-06-22T13:56:46;0.00;0.00
71396;DHT22;59888;55.814;37.132;2023-06-22T13:59:13;0.00;0.00
71396;DHT22;59888;55.814;37.132;2023-06-22T14:01:39;0.00;0.00
71396;DHT22;59888;55.814;37.132;2023-06-22T14:04:06;0.00;0.00
71396;DHT22;59888;55.814;37.132;2023-06-22T14:06:33;0.00;0.00
71396;DHT22;59888;55.814;37.132;2023-06-22T14:08:58;0.00;0.00
71396;DHT22;59888;55.814;37.132;2023-06-22T14:11:24;0.00;0.00
71396;DHT22;59888;55.814;37.132;2023-06-22T14:13:50;0.00;0.00
71396;DHT22;59888;55.814;37.132;2023-06-22T14:16:17;0.00;0.00
71396;DHT22;59888;55.814;37.132;2023-06-22T14:18:44;0.00;0.00
71396;DHT22;59888;55.814;37.132;2023-06-22T14:21:10;0.00;0.00
71396;DHT22;59888;55.814;37.132;2023-06-22T14:23:37;0.00;0.00
71396;DHT22;59888;55.814;37.132;2023-06-22T14:26:03;0.00;0.00
71396;DHT22;59888;55.814;37.132;2023-06-22T14:28:40;0.00;0.00
71396;DHT22;59888;55.814;37.132;2023-06-22T14:31:09;0.00;0.00
71396;DHT22;59888;55.814;37.132;2023-06-22T14:33:35;0.00;0.00
71396;DHT22;59888;55.814;37.132;2023-06-22T14:36:01;0.00;0.00
71396;DHT22;59888;55.814;37.132;2023-06-22T14:38:27;0.00;0.00
71396;DHT22;59888;55.814;37.132;2023-06-22T14:40:53;0.00;0.00
71396;DHT22;59888;55.814;37.132;2023-06-22T14:43:19;0.00;0.00
71396;DHT22;59888;55.814;37.132;2023-06-22T14:45:45;0.00;0.00
71396;DHT22;59888;55.814;37.132;2023-06-22T14:48:16;0.00;0.00
71396;DHT22;59888;55.814;37.132;2023-06-22T14:50:42;0.00;0.00
71396;DHT22;59888;55.814;37.132;2023-06-22T14:53:08;0.00;0.00
71396;DHT22;59888;55.814;37.132;2023-06-22T14:55:34;0.00;0.00
71396;DHT22;59888;55.814;37.132;2023-06-22T14:58:00;0.00;0.00
71396;DHT22;59888;55.814;37.132;2023-06-22T15:00:26;0.00;0.00
71396;DHT22;59888;55.814;37.132;2023-06-22T15:02:55;0.00;0.00
71396;DHT22;59888;55.814;37.132;2023-06-22T15:05:21;0.00;0.00
71396;DHT22;59888;55.814;37.132;2023-06-22T15:07:49;41.30;9.12
71396;DHT22;59888;55.814;37.132;2023-06-22T15:10:16;40.70;9.98
71396;DHT22;59888;55.814;37.132;2023-06-22T15:12:42;40.38;10.39
71396;DHT22;59888;55.814;37.132;2023-06-22T15:15:08;40.57;10.45
71396;DHT22;59888;55.814;37.132;2023-06-22T15:17:34;40.62;10.21
71396;DHT22;59888;55.814;37.132;2023-06-22T15:20:00;41.01;9.96
71396;DHT22;59888;55.814;37.132;2023-06-22T15:22:26;41.29;9.67
71396;DHT22;59888;55.814;37.132;2023-06-22T15:24:52;40.98;8.06
71396;DHT22;59888;55.814;37.132;2023-06-22T15:27:24;40.37;10.17
71396;DHT22;59888;55.814;37.132;2023-06-22T15:29:50;40.43;10.24
71396;DHT22;59888;55.814;37.132;2023-06-22T15:32:16;40.03;10.20
71396;DHT22;59888;55.814;37.132;2023-06-22T15:34:42;39.79;9.89
71396;DHT22;59888;55.814;37.132;2023-06-22T15:37:08;40.01;10.29
71396;DHT22;59888;55.814;37.132;2023-06-22T15:39:34;39.82;9.75